createdAt,value
2018-01-02T00:00:30.419Z,7.5
2018-01-02T00:01:30.502Z,7.5
2018-01-02T00:02:30.311Z,7.5
2018-01-02T00:03:30.078Z,7.5
2018-01-02T00:04:30.944Z,7.5
2018-01-02T00:05:30.918Z,7.44
2018-01-02T00:06:30.871Z,7.5
2018-01-02T00:07:30.857Z,7.44
2018-01-02T00:08:30.801Z,7.5
2018-01-02T00:09:30.779Z,7.44
2018-01-02T00:10:30.845Z,7.44
2018-01-02T00:11:30.987Z,7.5
2018-01-02T00:12:30.903Z,7.44
2018-01-02T00:13:31.042Z,7.44
2018-01-02T00:14:30.938Z,7.44
2018-01-02T00:15:30.912Z,7.44
2018-01-02T00:16:30.812Z,7.37
2018-01-02T00:17:31.023Z,7.44
2018-01-02T00:18:30.820Z,7.37
2018-01-02T00:19:30.587Z,7.44
2018-01-02T00:20:30.574Z,7.37
2018-01-02T00:21:30.808Z,7.44
2018-01-02T00:22:30.848Z,7.37
2018-01-02T00:23:30.772Z,7.37
2018-01-02T00:24:30.859Z,7.44
2018-01-02T00:25:29.981Z,7.37
2018-01-02T00:26:29.934Z,7.44
2018-01-02T00:27:30.011Z,7.37
2018-01-02T00:28:30.442Z,7.37
2018-01-02T00:29:30.446Z,7.37
2018-01-02T00:30:30.233Z,7.37
2018-01-02T00:31:30.268Z,7.31
2018-01-02T00:32:30.223Z,7.37
2018-01-02T00:33:30.292Z,7.31
2018-01-02T00:34:30.291Z,7.37
2018-01-02T00:35:30.322Z,7.31
2018-01-02T00:36:30.248Z,7.31
2018-01-02T00:37:30.186Z,7.31
2018-01-02T00:38:30.268Z,7.31
2018-01-02T00:39:30.366Z,7.31
2018-01-02T00:40:30.301Z,7.25
2018-01-02T00:41:30.244Z,7.25
2018-01-02T00:42:30.129Z,7.25
2018-01-02T00:43:30.023Z,7.25
2018-01-02T00:44:29.993Z,7.25
2018-01-02T00:45:30.028Z,7.25
2018-01-02T00:46:29.943Z,7.25
2018-01-02T00:47:29.892Z,7.25
2018-01-02T00:48:29.978Z,7.19
2018-01-02T00:49:30.411Z,7.19
2018-01-02T00:50:30.380Z,7.19
2018-01-02T00:51:30.478Z,7.25
2018-01-02T00:52:30.660Z,7.25
2018-01-02T00:53:30.677Z,7.19
2018-01-02T00:54:30.627Z,7.19
2018-01-02T00:55:29.602Z,7.12
2018-01-02T00:56:30.512Z,7.19
2018-01-02T00:57:30.690Z,7.12
2018-01-02T00:58:29.748Z,7.12
2018-01-02T00:59:29.779Z,7.12
2018-01-02T01:00:29.842Z,7.12
2018-01-02T01:01:29.764Z,7.12
2018-01-02T01:02:29.920Z,7.06
2018-01-02T01:03:29.864Z,7.06
2018-01-02T01:04:28.995Z,7.06
2018-01-02T01:05:30.082Z,7
2018-01-02T01:06:30.205Z,7
2018-01-02T01:07:30.286Z,7
2018-01-02T01:08:30.506Z,7
2018-01-02T01:09:30.524Z,7
2018-01-02T01:10:30.561Z,6.94
2018-01-02T01:11:30.495Z,6.94
2018-01-02T01:12:30.604Z,6.94
2018-01-02T01:13:30.422Z,6.94
2018-01-02T01:14:30.295Z,6.94
2018-01-02T01:15:30.062Z,6.94
2018-01-02T01:16:30.175Z,6.87
2018-01-02T01:17:29.358Z,6.87
2018-01-02T01:18:30.257Z,6.81
2018-01-02T01:19:30.142Z,6.87
2018-01-02T01:20:29.977Z,6.81
2018-01-02T01:21:29.857Z,6.75
2018-01-02T01:22:29.682Z,6.75
2018-01-02T01:23:29.739Z,6.75
2018-01-02T01:24:29.889Z,6.75
2018-01-02T01:25:29.814Z,6.69
2018-01-02T01:26:30.643Z,6.69
2018-01-02T01:27:30.674Z,6.69
2018-01-02T01:28:30.709Z,6.69
2018-01-02T01:29:30.591Z,6.62
2018-01-02T01:30:30.399Z,6.62
2018-01-02T01:31:30.491Z,6.62
2018-01-02T01:32:30.417Z,6.62
2018-01-02T01:33:30.463Z,6.56
2018-01-02T01:34:30.677Z,6.56
2018-01-02T01:35:30.710Z,6.5
2018-01-02T01:36:30.642Z,6.56
2018-01-02T01:37:30.635Z,6.5
2018-01-02T01:38:30.538Z,6.5
2018-01-02T01:39:30.687Z,6.5
2018-01-02T01:40:30.688Z,6.5
2018-01-02T01:41:30.689Z,6.44
2018-01-02T01:42:30.565Z,6.44
2018-01-02T01:43:30.583Z,6.5
2018-01-02T01:44:30.692Z,6.44
2018-01-02T01:45:30.905Z,6.44
2018-01-02T01:46:30.880Z,6.44
2018-01-02T01:47:30.946Z,6.44
2018-01-02T01:48:30.827Z,6.37
2018-01-02T01:49:30.829Z,6.44
2018-01-02T01:50:30.779Z,6.37
2018-01-02T01:51:30.743Z,6.37
2018-01-02T01:52:30.673Z,6.37
2018-01-02T01:53:30.589Z,6.37
2018-01-02T01:54:30.465Z,6.37
2018-01-02T01:55:30.623Z,6.44
2018-01-02T01:56:29.720Z,6.37
2018-01-02T01:57:29.636Z,6.37
2018-01-02T01:58:29.678Z,6.44
2018-01-02T01:59:29.538Z,6.37
2018-01-02T02:00:30.623Z,6.37
2018-01-02T02:01:29.522Z,6.37
2018-01-02T02:02:30.374Z,6.44
2018-01-02T02:03:30.251Z,6.44
2018-01-02T02:04:30.127Z,6.5
2018-01-02T02:05:30.238Z,6.44
2018-01-02T02:06:30.238Z,6.5
2018-01-02T02:07:30.190Z,6.44
2018-01-02T02:08:30.138Z,6.5
2018-01-02T02:09:30.258Z,6.5
2018-01-02T02:10:30.127Z,6.5
2018-01-02T02:11:30.343Z,6.5
2018-01-02T02:12:30.143Z,6.56
2018-01-02T02:13:30.358Z,6.56
2018-01-02T02:14:30.318Z,6.5
2018-01-02T02:15:30.449Z,6.56
2018-01-02T02:16:30.632Z,6.56
2018-01-02T02:17:30.078Z,6.56
2018-01-02T02:18:30.239Z,6.5
2018-01-02T02:19:30.142Z,6.56
2018-01-02T02:20:30.241Z,6.56
2018-01-02T02:21:30.454Z,6.56
2018-01-02T02:22:30.496Z,6.56
2018-01-02T02:23:30.664Z,6.56
2018-01-02T02:24:29.772Z,6.56
2018-01-02T02:25:29.713Z,6.56
2018-01-02T02:26:29.658Z,6.56
2018-01-02T02:27:30.618Z,6.56
2018-01-02T02:28:30.700Z,6.56
2018-01-02T02:29:30.657Z,6.56
2018-01-02T02:30:30.873Z,6.56
2018-01-02T02:31:30.074Z,6.56
2018-01-02T02:32:29.963Z,6.56
2018-01-02T02:33:30.173Z,6.56
2018-01-02T02:34:30.171Z,6.56
2018-01-02T02:35:30.079Z,6.56
2018-01-02T02:36:30.052Z,6.56
2018-01-02T02:37:30.012Z,6.56
2018-01-02T02:38:29.948Z,6.56
2018-01-02T02:39:30.191Z,6.56
2018-01-02T02:40:30.108Z,6.56
2018-01-02T02:41:30.100Z,6.56
2018-01-02T02:42:29.983Z,6.56
2018-01-02T02:43:30.090Z,6.56
2018-01-02T02:44:30.163Z,6.56
2018-01-02T02:45:30.260Z,6.5
2018-01-02T02:46:30.198Z,6.5
2018-01-02T02:47:30.232Z,6.5
2018-01-02T02:48:30.205Z,6.5
2018-01-02T02:49:30.242Z,6.5
2018-01-02T02:50:30.439Z,6.5
2018-01-02T02:51:30.422Z,6.5
2018-01-02T02:52:30.327Z,6.5
2018-01-02T02:53:30.279Z,6.56
2018-01-02T02:54:30.326Z,6.56
2018-01-02T02:55:30.275Z,6.5
2018-01-02T02:56:30.545Z,6.56
2018-01-02T02:57:30.661Z,6.5
2018-01-02T02:58:30.597Z,6.5
2018-01-02T02:59:30.477Z,6.56
2018-01-02T03:00:30.327Z,6.5
2018-01-02T03:01:30.203Z,6.56
2018-01-02T03:02:31.122Z,6.5
2018-01-02T03:03:31.238Z,6.56
2018-01-02T03:04:31.238Z,6.5
2018-01-02T03:05:31.176Z,6.56
2018-01-02T03:06:30.992Z,6.5
2018-01-02T03:07:31.034Z,6.5
2018-01-02T03:08:31.082Z,6.5
2018-01-02T03:09:31.106Z,6.5
2018-01-02T03:10:30.945Z,6.5
2018-01-02T03:11:31.090Z,6.5
2018-01-02T03:12:31.050Z,6.5
2018-01-02T03:13:31.003Z,6.5
2018-01-02T03:14:30.771Z,6.5
2018-01-02T03:15:30.630Z,6.5
2018-01-02T03:16:30.642Z,6.5
2018-01-02T03:17:30.745Z,6.5
2018-01-02T03:18:30.727Z,6.5
2018-01-02T03:19:30.764Z,6.44
2018-01-02T03:20:30.811Z,6.5
2018-01-02T03:21:30.827Z,6.5
2018-01-02T03:22:30.578Z,6.5
2018-01-02T03:23:30.596Z,6.5
2018-01-02T03:24:30.552Z,6.5
2018-01-02T03:25:30.830Z,6.5
2018-01-02T03:26:31.063Z,6.44
2018-01-02T03:27:29.990Z,6.5
2018-01-02T03:28:29.934Z,6.44
2018-01-02T03:29:30.001Z,6.44
2018-01-02T03:30:29.897Z,6.44
2018-01-02T03:31:29.997Z,6.5
2018-01-02T03:32:29.828Z,6.44
2018-01-02T03:33:29.848Z,6.5
2018-01-02T03:34:29.829Z,6.44
2018-01-02T03:35:29.912Z,6.5
2018-01-02T03:36:30.095Z,6.5
2018-01-02T03:37:30.123Z,6.5
2018-01-02T03:38:30.104Z,6.5
2018-01-02T03:39:30.183Z,6.5
2018-01-02T03:40:30.216Z,6.44
2018-01-02T03:41:30.190Z,6.44
2018-01-02T03:42:30.281Z,6.5
2018-01-02T03:43:30.292Z,6.44
2018-01-02T03:44:30.354Z,6.5
2018-01-02T03:45:30.358Z,6.5
2018-01-02T03:46:30.336Z,6.5
2018-01-02T03:47:30.495Z,6.5
2018-01-02T03:48:30.405Z,6.5
2018-01-02T03:49:30.346Z,6.5
2018-01-02T03:50:30.266Z,6.5
2018-01-02T03:51:30.398Z,6.5
2018-01-02T03:52:30.493Z,6.5
2018-01-02T03:53:30.518Z,6.44
2018-01-02T03:54:30.462Z,6.5
2018-01-02T03:55:30.961Z,6.5
2018-01-02T03:56:29.716Z,6.5
2018-01-02T03:57:30.768Z,6.5
2018-01-02T03:58:29.750Z,6.5
2018-01-02T03:59:29.683Z,6.5
2018-01-02T04:00:29.627Z,6.44
2018-01-02T04:01:30.584Z,6.5
2018-01-02T04:02:29.572Z,6.44
2018-01-02T04:03:30.330Z,6.44
2018-01-02T04:04:30.366Z,6.44
2018-01-02T04:05:30.397Z,6.44
2018-01-02T04:06:30.439Z,6.37
2018-01-02T04:07:30.328Z,6.44
2018-01-02T04:08:30.138Z,6.44
2018-01-02T04:09:30.037Z,6.44
2018-01-02T04:10:30.186Z,6.37
2018-01-02T04:11:30.058Z,6.44
2018-01-02T04:12:30.134Z,6.37
2018-01-02T04:13:30.319Z,6.44
2018-01-02T04:14:30.502Z,6.44
2018-01-02T04:15:30.494Z,6.37
2018-01-02T04:16:30.641Z,6.44
2018-01-02T04:17:30.589Z,6.37
2018-01-02T04:18:29.673Z,6.44
2018-01-02T04:19:30.575Z,6.37
2018-01-02T04:21:33.861Z,6.37
2018-01-02T04:22:29.989Z,6.37
2018-01-02T04:23:29.993Z,6.37
2018-01-02T04:24:29.847Z,6.37
2018-01-02T04:25:29.871Z,6.37
2018-01-02T04:26:29.922Z,6.31
2018-01-02T04:27:30.100Z,6.31
2018-01-02T04:28:29.762Z,6.31
2018-01-02T04:29:29.691Z,6.31
2018-01-02T04:30:32.502Z,6.31
2018-01-02T04:31:31.100Z,6.31
2018-01-02T04:32:30.084Z,6.25
2018-01-02T04:33:31.158Z,6.25
2018-01-02T04:34:30.105Z,6.25
2018-01-02T04:35:31.624Z,6.25
2018-01-02T04:36:31.919Z,6.25
2018-01-02T04:37:29.995Z,6.25
2018-01-02T04:38:29.965Z,6.25
2018-01-02T04:39:30.125Z,6.25
2018-01-02T04:40:31.619Z,6.19
2018-01-02T04:41:31.617Z,6.25
2018-01-02T04:42:31.754Z,6.19
2018-01-02T04:43:31.570Z,6.25
2018-01-02T04:44:31.976Z,6.19
2018-01-02T04:45:30.090Z,6.19
2018-01-02T04:46:30.044Z,6.19
2018-01-02T04:47:30.067Z,6.19
2018-01-02T04:48:31.329Z,6.19
2018-01-02T04:49:31.323Z,6.19
2018-01-02T04:50:31.059Z,6.19
2018-01-02T04:51:31.115Z,6.19
2018-01-02T04:52:31.236Z,6.12
2018-01-02T04:53:31.092Z,6.12
2018-01-02T04:54:29.974Z,6.19
2018-01-02T04:55:31.605Z,6.12
2018-01-02T04:56:31.647Z,6.12
2018-01-02T04:57:31.866Z,6.12
2018-01-02T04:58:31.049Z,6.12
2018-01-02T04:59:31.212Z,6.12
2018-01-02T05:00:31.946Z,6.12
2018-01-02T05:01:31.935Z,6.12
2018-01-02T05:02:29.923Z,6.12
2018-01-02T05:03:31.727Z,6.12
2018-01-02T05:04:31.893Z,6.12
2018-01-02T05:05:32.285Z,6.12
2018-01-02T05:06:31.443Z,6.12
2018-01-02T05:07:31.953Z,6.12
2018-01-02T05:08:31.820Z,6.12
2018-01-02T05:09:31.691Z,6.12
2018-01-02T05:10:31.856Z,6.12
2018-01-02T05:11:31.684Z,6.12
2018-01-02T05:12:31.801Z,6.12
2018-01-02T05:13:31.620Z,6.12
2018-01-02T05:14:32.436Z,6.12
2018-01-02T05:15:31.441Z,6.12
2018-01-02T05:16:31.306Z,6.12
2018-01-02T05:17:32.229Z,6.12
2018-01-02T05:18:31.390Z,6.12
2018-01-02T05:19:31.319Z,6.12
2018-01-02T05:20:31.283Z,6.12
2018-01-02T05:21:31.217Z,6.12
2018-01-02T05:22:31.362Z,6.12
2018-01-02T05:23:31.208Z,6.12
2018-01-02T05:24:31.296Z,6.12
2018-01-02T05:25:31.691Z,6.12
2018-01-02T05:26:31.372Z,6.12
2018-01-02T05:27:31.673Z,6.12
2018-01-02T05:28:31.955Z,6.06
2018-01-02T05:29:32.323Z,6.06
2018-01-02T05:30:31.293Z,6.12
2018-01-02T05:31:31.233Z,6.12
2018-01-02T05:32:31.658Z,6.06
2018-01-02T05:33:31.515Z,6.12
2018-01-02T05:34:32.345Z,6.06
2018-01-02T05:35:31.525Z,6.12
2018-01-02T05:36:32.210Z,6.12
2018-01-02T05:37:30.848Z,6.12
2018-01-02T05:38:31.844Z,6.06
2018-01-02T05:39:32.189Z,6.12
2018-01-02T05:40:31.147Z,6.06
2018-01-02T05:41:31.070Z,6.12
2018-01-02T05:42:31.175Z,6.06
2018-01-02T05:43:31.322Z,6.12
2018-01-02T05:44:31.872Z,6.06
2018-01-02T05:45:32.282Z,6.12
2018-01-02T05:46:32.000Z,6.12
2018-01-02T05:47:29.734Z,6.12
2018-01-02T05:48:31.645Z,6.12
2018-01-02T05:49:31.737Z,6.06
2018-01-02T05:50:31.984Z,6.06
2018-01-02T05:51:29.963Z,6.06
2018-01-02T05:52:31.269Z,6.06
2018-01-02T05:53:34.039Z,6.06
2018-01-02T05:54:34.053Z,6.06
2018-01-02T05:55:31.807Z,6.06
2018-01-02T05:56:32.296Z,6.06
2018-01-02T05:57:31.349Z,6
2018-01-02T05:58:31.407Z,6.06
2018-01-02T05:59:29.431Z,6
2018-01-02T06:00:31.429Z,6.06
2018-01-02T06:01:29.497Z,6
2018-01-02T06:02:31.344Z,6
2018-01-02T06:03:31.994Z,6
2018-01-02T06:04:30.069Z,6
2018-01-02T06:05:30.879Z,6
2018-01-02T06:06:29.908Z,6
2018-01-02T06:07:29.912Z,6
2018-01-02T06:08:31.192Z,6
2018-01-02T06:09:30.067Z,6
2018-01-02T06:10:29.938Z,6
2018-01-02T06:11:31.486Z,6
2018-01-02T06:12:29.526Z,6
2018-01-02T06:13:31.488Z,6
2018-01-02T06:14:31.721Z,6
2018-01-02T06:15:29.874Z,6
2018-01-02T06:16:31.077Z,6
2018-01-02T06:17:29.948Z,6.06
2018-01-02T06:18:29.636Z,6.06
2018-01-02T06:19:29.787Z,6.06
2018-01-02T06:20:29.991Z,6.06
2018-01-02T06:21:29.990Z,6.06
2018-01-02T06:22:29.785Z,6.06
2018-01-02T06:23:29.860Z,6.06
2018-01-02T06:24:29.746Z,6.06
2018-01-02T06:25:29.759Z,6.06
2018-01-02T06:26:29.744Z,6.12
2018-01-02T06:27:29.599Z,6.06
2018-01-02T06:28:31.042Z,6.12
2018-01-02T06:29:29.989Z,6.12
2018-01-02T06:30:32.365Z,6.12
2018-01-02T06:31:32.023Z,6.06
2018-01-02T06:32:32.042Z,6.06
2018-01-02T06:33:32.296Z,6.12
2018-01-02T06:34:31.558Z,6.12
2018-01-02T06:35:31.624Z,6.12
2018-01-02T06:36:32.059Z,6.12
2018-01-02T06:37:32.282Z,6.06
2018-01-02T06:38:32.019Z,6.12
2018-01-02T06:39:31.957Z,6.12
2018-01-02T06:40:32.615Z,6.06
2018-01-02T06:41:31.940Z,6.06
2018-01-02T06:42:31.285Z,6.06
2018-01-02T06:43:31.273Z,6.12
2018-01-02T06:44:30.818Z,6.06
2018-01-02T06:45:32.484Z,6.12
2018-01-02T06:46:32.209Z,6.06
2018-01-02T06:47:31.177Z,6.06
2018-01-02T06:48:30.877Z,6.06
2018-01-02T06:49:32.251Z,6.06
2018-01-02T06:50:31.906Z,6.06
2018-01-02T06:51:31.502Z,6.06
2018-01-02T06:52:31.755Z,6.06
2018-01-02T06:53:31.905Z,6.06
2018-01-02T06:54:32.205Z,6.06
2018-01-02T06:55:32.369Z,6
2018-01-02T06:56:32.082Z,6.06
2018-01-02T06:57:32.254Z,6.06
2018-01-02T06:58:31.405Z,6.06
2018-01-02T06:59:31.385Z,6.06
2018-01-02T07:00:29.407Z,6.06
2018-01-02T07:01:31.437Z,6.06
2018-01-02T07:02:29.623Z,6.06
2018-01-02T07:03:29.657Z,6.12
2018-01-02T07:04:29.634Z,6.12
2018-01-02T07:05:30.081Z,6.12
2018-01-02T07:06:29.773Z,6.12
2018-01-02T07:07:29.838Z,6.12
2018-01-02T07:08:29.755Z,6.12
2018-01-02T07:09:29.885Z,6.12
2018-01-02T07:10:29.978Z,6.12
2018-01-02T07:11:29.866Z,6.12
2018-01-02T07:12:29.828Z,6.12
2018-01-02T07:13:29.882Z,6.12
2018-01-02T07:14:29.823Z,6.19
2018-01-02T07:15:31.431Z,6.19
2018-01-02T07:16:29.227Z,6.19
2018-01-02T07:17:30.034Z,6.19
2018-01-02T07:18:32.140Z,6.19
2018-01-02T07:19:29.867Z,6.19
2018-01-02T07:20:29.770Z,6.19
2018-01-02T07:21:30.029Z,6.19
2018-01-02T07:22:30.104Z,6.19
2018-01-02T07:23:29.890Z,6.19
2018-01-02T07:24:29.582Z,6.25
2018-01-02T07:25:29.789Z,6.25
2018-01-02T07:26:29.855Z,6.25
2018-01-02T07:27:29.355Z,6.19
2018-01-02T07:28:32.206Z,6.25
2018-01-02T07:29:32.018Z,6.19
2018-01-02T07:30:30.010Z,6.25
2018-01-02T07:31:31.322Z,6.25
2018-01-02T07:32:31.138Z,6.19
2018-01-02T07:33:31.413Z,6.25
2018-01-02T07:34:31.505Z,6.25
2018-01-02T07:35:31.491Z,6.25
2018-01-02T07:36:31.388Z,6.25
2018-01-02T07:37:31.636Z,6.25
2018-01-02T07:38:31.601Z,6.25
2018-01-02T07:39:31.496Z,6.25
2018-01-02T07:40:31.073Z,6.25
2018-01-02T07:41:30.149Z,6.25
2018-01-02T07:42:31.283Z,6.25
2018-01-02T07:43:32.009Z,6.25
2018-01-02T07:44:32.117Z,6.25
2018-01-02T07:45:31.581Z,6.31
2018-01-02T07:46:32.256Z,6.25
2018-01-02T07:47:30.804Z,6.25
2018-01-02T07:48:31.949Z,6.25
2018-01-02T07:49:30.053Z,6.25
2018-01-02T07:50:31.177Z,6.31
2018-01-02T07:51:31.335Z,6.25
2018-01-02T07:52:31.580Z,6.25
2018-01-02T07:53:32.601Z,6.25
2018-01-02T07:54:31.622Z,6.31
2018-01-02T07:55:31.671Z,6.25
2018-01-02T07:56:31.759Z,6.31
2018-01-02T07:57:32.054Z,6.25
2018-01-02T07:58:30.048Z,6.31
2018-01-02T07:59:30.083Z,6.25
2018-01-02T08:00:30.838Z,6.31
2018-01-02T08:01:32.103Z,6.31
2018-01-02T08:02:32.067Z,6.31
2018-01-02T08:03:31.940Z,6.31
2018-01-02T08:04:31.721Z,6.25
2018-01-02T08:05:31.279Z,6.31
2018-01-02T08:06:31.279Z,6.31
2018-01-02T08:07:32.238Z,6.31
2018-01-02T08:08:31.329Z,6.31
2018-01-02T08:09:31.863Z,6.31
2018-01-02T08:10:31.734Z,6.25
2018-01-02T08:11:32.257Z,6.31
2018-01-02T08:12:31.426Z,6.25
2018-01-02T08:13:31.710Z,6.31
2018-01-02T08:14:31.631Z,6.31
2018-01-02T08:15:31.040Z,6.31
2018-01-02T08:16:32.119Z,6.31
2018-01-02T08:17:32.570Z,6.31
2018-01-02T08:18:31.423Z,6.31
2018-01-02T08:19:31.501Z,6.31
2018-01-02T08:20:31.455Z,6.31
2018-01-02T08:21:31.501Z,6.31
2018-01-02T08:22:31.532Z,6.31
2018-01-02T08:23:31.916Z,6.31
2018-01-02T08:24:32.330Z,6.31
2018-01-02T08:25:31.336Z,6.31
2018-01-02T08:26:32.201Z,6.31
2018-01-02T08:27:31.147Z,6.31
2018-01-02T08:28:32.227Z,6.37
2018-01-02T08:29:32.213Z,6.31
2018-01-02T08:30:32.169Z,6.31
2018-01-02T08:31:31.376Z,6.31
2018-01-02T08:32:31.214Z,6.31
2018-01-02T08:33:31.819Z,6.31
2018-01-02T08:34:31.438Z,6.31
2018-01-02T08:35:31.771Z,6.37
2018-01-02T08:36:31.912Z,6.31
2018-01-02T08:37:31.895Z,6.31
2018-01-02T08:38:31.758Z,6.37
2018-01-02T08:39:31.895Z,6.31
2018-01-02T08:40:31.885Z,6.31
2018-01-02T08:41:31.646Z,6.31
2018-01-02T08:42:31.599Z,6.31
2018-01-02T08:43:31.745Z,6.31
2018-01-02T08:44:31.960Z,6.31
2018-01-02T08:45:32.077Z,6.31
2018-01-02T08:46:32.142Z,6.31
2018-01-02T08:47:31.305Z,6.31
2018-01-02T08:48:31.337Z,6.31
2018-01-02T08:49:31.214Z,6.37
2018-01-02T08:50:32.052Z,6.37
2018-01-02T08:51:32.628Z,6.31
2018-01-02T08:52:31.977Z,6.37
2018-01-02T08:53:32.014Z,6.31
2018-01-02T08:54:32.725Z,6.37
2018-01-02T08:55:31.797Z,6.31
2018-01-02T08:56:31.814Z,6.37
2018-01-02T08:57:31.422Z,6.31
2018-01-02T08:58:31.415Z,6.31
2018-01-02T08:59:31.356Z,6.37
2018-01-02T09:00:31.411Z,6.37
2018-01-02T09:01:29.638Z,6.31
2018-01-02T09:02:29.656Z,6.37
2018-01-02T09:03:29.679Z,6.37
2018-01-02T09:04:29.541Z,6.31
2018-01-02T09:05:29.998Z,6.37
2018-01-02T09:06:29.997Z,6.37
2018-01-02T09:07:29.922Z,6.37
2018-01-02T09:08:30.017Z,6.31
2018-01-02T09:09:31.343Z,6.37
2018-01-02T09:10:31.090Z,6.37
2018-01-02T09:11:29.856Z,6.37
2018-01-02T09:12:29.600Z,6.31
2018-01-02T09:13:29.608Z,6.37
2018-01-02T09:14:31.195Z,6.37
2018-01-02T09:15:31.949Z,6.31
2018-01-02T09:16:31.265Z,6.37
2018-01-02T09:17:30.121Z,6.37
2018-01-02T09:18:31.578Z,6.37
2018-01-02T09:19:29.875Z,6.37
2018-01-02T09:20:31.184Z,6.44
2018-01-02T09:21:32.024Z,6.37
2018-01-02T09:22:29.937Z,6.37
2018-01-02T09:23:29.687Z,6.37
2018-01-02T09:24:29.739Z,6.44
2018-01-02T09:25:29.522Z,6.37
2018-01-02T09:26:29.545Z,6.37
2018-01-02T09:27:31.573Z,6.44
2018-01-02T09:28:29.616Z,6.44
2018-01-02T09:29:29.642Z,6.44
2018-01-02T09:30:29.780Z,6.44
2018-01-02T09:31:29.886Z,6.5
2018-01-02T09:32:29.664Z,6.44
2018-01-02T09:33:31.242Z,6.44
2018-01-02T09:34:30.214Z,6.44
2018-01-02T09:35:29.988Z,6.5
2018-01-02T09:36:29.972Z,6.5
2018-01-02T09:37:30.222Z,6.5
2018-01-02T09:38:31.437Z,6.5
2018-01-02T09:39:32.042Z,6.5
2018-01-02T09:40:30.063Z,6.5
2018-01-02T09:41:32.372Z,6.56
2018-01-02T09:42:31.437Z,6.5
2018-01-02T09:43:32.043Z,6.56
2018-01-02T09:44:30.078Z,6.56
2018-01-02T09:45:30.007Z,6.56
2018-01-02T09:46:31.272Z,6.56
2018-01-02T09:47:31.398Z,6.56
2018-01-02T09:48:31.553Z,6.56
2018-01-02T09:49:32.251Z,6.56
2018-01-02T09:50:31.041Z,6.56
2018-01-02T09:51:30.078Z,6.56
2018-01-02T09:52:31.721Z,6.56
2018-01-02T09:53:31.767Z,6.56
2018-01-02T09:54:29.863Z,6.56
2018-01-02T09:55:32.032Z,6.56
2018-01-02T09:56:30.042Z,6.56
2018-01-02T09:57:30.075Z,6.56
2018-01-02T09:58:31.329Z,6.56
2018-01-02T09:59:31.918Z,6.56
2018-01-02T10:00:29.955Z,6.56
2018-01-02T10:01:31.675Z,6.56
2018-01-02T10:02:29.634Z,6.56
2018-01-02T10:03:31.752Z,6.56
2018-01-02T10:04:34.456Z,6.56
2018-01-02T10:05:31.588Z,6.56
2018-01-02T10:06:32.377Z,6.56
2018-01-02T10:07:32.920Z,6.56
2018-01-02T10:08:33.671Z,6.56
2018-01-02T10:11:34.965Z,6.5
2018-01-02T10:12:31.382Z,6.56
2018-01-02T10:13:32.657Z,6.56
2018-01-02T10:14:31.853Z,6.56
2018-01-02T10:15:32.079Z,6.56
2018-01-02T10:16:31.303Z,6.56
2018-01-02T10:17:31.480Z,6.56
2018-01-02T10:18:31.484Z,6.56
2018-01-02T10:19:31.996Z,6.56
2018-01-02T10:20:30.909Z,6.56
2018-01-02T10:21:31.484Z,6.56
2018-01-02T10:22:31.694Z,6.56
2018-01-02T10:23:31.337Z,6.56
2018-01-02T10:24:31.579Z,6.62
2018-01-02T10:25:31.603Z,6.62
2018-01-02T10:26:31.518Z,6.62
2018-01-02T10:27:32.384Z,6.62
2018-01-02T10:28:31.868Z,6.62
2018-01-02T10:29:31.026Z,6.69
2018-01-02T10:30:31.649Z,6.62
2018-01-02T10:31:31.907Z,6.69
2018-01-02T10:32:35.732Z,6.69
2018-01-02T10:33:31.602Z,6.75
2018-01-02T10:34:31.783Z,6.75
2018-01-02T10:35:31.894Z,6.81
2018-01-02T10:36:32.502Z,6.81
2018-01-02T10:37:31.711Z,6.81
2018-01-02T10:38:31.778Z,6.87
2018-01-02T10:39:32.075Z,6.87
2018-01-02T10:40:31.731Z,6.94
2018-01-02T10:41:31.771Z,6.94
2018-01-02T10:42:32.230Z,7
2018-01-02T10:43:31.377Z,7
2018-01-02T10:44:31.220Z,7
2018-01-02T10:45:31.079Z,7
2018-01-02T10:46:31.226Z,7.06
2018-01-02T10:47:31.835Z,7.06
2018-01-02T10:48:31.873Z,7.06
2018-01-02T10:49:32.488Z,7.06
2018-01-02T10:50:31.728Z,7.12
2018-01-02T10:51:31.363Z,7.12
2018-01-02T10:52:31.714Z,7.19
2018-01-02T10:53:31.847Z,7.12
2018-01-02T10:54:32.015Z,7.19
2018-01-02T10:55:32.124Z,7.12
2018-01-02T10:56:31.132Z,7.12
2018-01-02T10:57:31.521Z,7.12
2018-01-02T10:58:31.654Z,7.12
2018-01-02T10:59:33.604Z,7.12
2018-01-02T11:00:32.003Z,7.06
2018-01-02T11:01:31.327Z,7.06
2018-01-02T11:02:31.729Z,7.06
2018-01-02T11:03:30.984Z,7.06
2018-01-02T11:04:31.035Z,7.06
2018-01-02T11:05:31.338Z,7.06
2018-01-02T11:06:31.435Z,7.06
2018-01-02T11:07:31.795Z,7.06
2018-01-02T11:08:32.477Z,7.06
2018-01-02T11:09:31.236Z,7.12
2018-01-02T11:10:31.338Z,7.06
2018-01-02T11:11:31.720Z,7.12
2018-01-02T11:12:30.890Z,7.06
2018-01-02T11:13:31.011Z,7.12
2018-01-02T11:14:31.195Z,7.12
2018-01-02T11:15:31.206Z,7.12
2018-01-02T11:16:31.598Z,7.19
2018-01-02T11:17:30.644Z,7.19
2018-01-02T11:18:30.913Z,7.19
2018-01-02T11:19:31.057Z,7.12
2018-01-02T11:20:31.370Z,7.19
2018-01-02T11:21:31.192Z,7.19
2018-01-02T11:22:32.029Z,7.19
2018-01-02T11:23:31.302Z,7.19
2018-01-02T11:24:31.470Z,7.19
2018-01-02T11:25:31.585Z,7.19
2018-01-02T11:26:31.350Z,7.19
2018-01-02T11:27:31.574Z,7.19
2018-01-02T11:28:31.373Z,7.19
2018-01-02T11:29:31.536Z,7.19
2018-01-02T11:30:31.927Z,7.12
2018-01-02T11:31:31.440Z,7.12
2018-01-02T11:32:31.602Z,7.12
2018-01-02T11:33:31.119Z,7.19
2018-01-02T11:34:30.836Z,7.12
2018-01-02T11:35:31.071Z,7.19
2018-01-02T11:36:31.095Z,7.19
2018-01-02T11:37:31.473Z,7.19
2018-01-02T11:38:31.235Z,7.12
2018-01-02T11:39:31.303Z,7.19
2018-01-02T11:40:31.499Z,7.19
2018-01-02T11:41:31.600Z,7.19
2018-01-02T11:42:31.913Z,7.19
2018-01-02T11:43:30.864Z,7.19
2018-01-02T11:44:30.967Z,7.25
2018-01-02T11:45:31.156Z,7.25
2018-01-02T11:46:31.400Z,7.31
2018-01-02T11:47:31.615Z,7.31
2018-01-02T11:48:31.879Z,7.31
2018-01-02T11:49:30.734Z,7.37
2018-01-02T11:50:30.523Z,7.37
2018-01-02T11:51:31.808Z,7.31
2018-01-02T11:52:31.121Z,7.37
2018-01-02T11:53:31.259Z,7.37
2018-01-02T11:54:31.324Z,7.37
2018-01-02T11:55:31.603Z,7.31
2018-01-02T11:56:31.528Z,7.31
2018-01-02T11:57:31.779Z,7.37
2018-01-02T11:58:31.576Z,7.31
2018-01-02T11:59:31.709Z,7.31
2018-01-02T12:00:31.252Z,7.31
2018-01-02T12:01:31.415Z,7.37
2018-01-02T12:02:31.740Z,7.31
2018-01-02T12:03:32.409Z,7.31
2018-01-02T12:04:31.744Z,7.31
2018-01-02T12:05:31.932Z,7.31
2018-01-02T12:06:31.155Z,7.31
2018-01-02T12:07:31.427Z,7.31
2018-01-02T12:08:31.149Z,7.31
2018-01-02T12:09:30.533Z,7.31
2018-01-02T12:10:31.606Z,7.31
2018-01-02T12:11:32.190Z,7.37
2018-01-02T12:12:31.390Z,7.37
2018-01-02T12:13:31.794Z,7.37
2018-01-02T12:14:31.012Z,7.37
2018-01-02T12:15:31.160Z,7.37
2018-01-02T12:16:31.216Z,7.37
2018-01-02T12:17:31.426Z,7.31
2018-01-02T12:18:31.729Z,7.37
2018-01-02T12:19:31.540Z,7.31
2018-01-02T12:20:31.844Z,7.31
2018-01-02T12:21:31.772Z,7.31
2018-01-02T12:22:30.821Z,7.31
2018-01-02T12:23:31.632Z,7.25
2018-01-02T12:24:32.494Z,7.31
2018-01-02T12:25:31.650Z,7.25
2018-01-02T12:26:31.931Z,7.25
2018-01-02T12:27:31.178Z,7.31
2018-01-02T12:28:31.272Z,7.25
2018-01-02T12:29:31.496Z,7.25
2018-01-02T12:30:31.362Z,7.25
2018-01-02T12:31:31.816Z,7.19
2018-01-02T12:32:31.860Z,7.25
2018-01-02T12:33:31.187Z,7.25
2018-01-02T12:34:31.322Z,7.19
2018-01-02T12:35:31.251Z,7.25
2018-01-02T12:36:31.502Z,7.19
2018-01-02T12:37:31.484Z,7.19
2018-01-02T12:38:31.243Z,7.19
2018-01-02T12:39:32.630Z,7.19
2018-01-02T12:40:31.792Z,7.19
2018-01-02T12:41:31.446Z,7.19
2018-01-02T12:42:31.887Z,7.19
2018-01-02T12:43:32.041Z,7.19
2018-01-02T12:44:32.476Z,7.19
2018-01-02T12:45:32.287Z,7.19
2018-01-02T12:46:32.022Z,7.25
2018-01-02T12:47:32.285Z,7.19
2018-01-02T12:48:31.089Z,7.25
2018-01-02T12:49:32.426Z,7.25
2018-01-02T12:50:31.765Z,7.25
2018-01-02T12:51:32.025Z,7.25
2018-01-02T12:52:32.423Z,7.31
2018-01-02T12:53:32.036Z,7.31
2018-01-02T12:54:32.385Z,7.25
2018-01-02T12:55:31.608Z,7.31
2018-01-02T12:56:30.812Z,7.31
2018-01-02T12:57:32.256Z,7.31
2018-01-02T12:58:32.023Z,7.25
2018-01-02T12:59:32.026Z,7.31
2018-01-02T13:00:32.137Z,7.25
2018-01-02T13:01:32.066Z,7.31
2018-01-02T13:02:32.160Z,7.31
2018-01-02T13:03:32.758Z,7.31
2018-01-02T13:04:32.206Z,7.31
2018-01-02T13:05:31.608Z,7.31
2018-01-02T13:06:31.628Z,7.31
2018-01-02T13:07:31.635Z,7.31
2018-01-02T13:08:32.218Z,7.31
2018-01-02T13:09:31.361Z,7.31
2018-01-02T13:10:32.801Z,7.31
2018-01-02T13:11:32.833Z,7.37
2018-01-02T13:12:33.336Z,7.37
2018-01-02T13:13:31.267Z,7.31
2018-01-02T13:14:32.857Z,7.37
2018-01-02T13:15:33.507Z,7.31
2018-01-02T13:16:31.398Z,7.31
2018-01-02T13:17:31.404Z,7.37
2018-01-02T13:18:32.990Z,7.31
2018-01-02T13:19:33.018Z,7.31
2018-01-02T13:20:32.820Z,7.31
2018-01-02T13:21:32.651Z,7.37
2018-01-02T13:22:32.847Z,7.31
2018-01-02T13:23:33.025Z,7.31
2018-01-02T13:24:33.297Z,7.31
2018-01-02T13:25:32.525Z,7.37
2018-01-02T13:26:31.356Z,7.31
2018-01-02T13:27:31.561Z,7.37